DMAW EDFZ-EDGS
Flight info
| Callsign | DMAW |
|---|---|
| Flight time | 0h 27m |
| Altitude | 6000 |
| Route | RUDUS Z10 TABUM TABUM3A |
| Aircraft | DA62/L-SDFGRY/C |
Departure
| Time | 2026-04-30 21:14 |
|---|---|
| Airport | Mainz-Finthen Airfield (EDFZ) |
Arrival
| Time | 2026-04-30 21:42 |
|---|---|
| Airport | Siegerland Airport (EDGS) |
| Time | Latitude | Longitude | Altitude | Speed | Heading |
|---|---|---|---|---|---|
| 2026-04-30 20:50 | 49.97166 | 8.15080 | 747 ft | 0 kts | 235° |
| 2026-04-30 21:05 | 49.97166 | 8.15079 | 747 ft | 0 kts | 235° |
| 2026-04-30 21:06 | 49.97134 | 8.15056 | 747 ft | 10 kts | 160° |
| 2026-04-30 21:06 | 49.97099 | 8.15018 | 748 ft | 9 kts | 287° |
| 2026-04-30 21:06 | 49.97083 | 8.14897 | 749 ft | 13 kts | 253° |
| 2026-04-30 21:06 | 49.97062 | 8.14784 | 753 ft | 9 kts | 254° |
| 2026-04-30 21:07 | 49.97047 | 8.14700 | 754 ft | 7 kts | 255° |
| 2026-04-30 21:07 | 49.97036 | 8.14637 | 755 ft | 5 kts | 255° |
| 2026-04-30 21:07 | 49.97028 | 8.14591 | 756 ft | 4 kts | 255° |
| 2026-04-30 21:07 | 49.97021 | 8.14549 | 756 ft | 7 kts | 255° |
| 2026-04-30 21:08 | 49.97001 | 8.14443 | 759 ft | 12 kts | 254° |
| 2026-04-30 21:08 | 49.96978 | 8.14319 | 761 ft | 12 kts | 255° |
| 2026-04-30 21:08 | 49.96956 | 8.14183 | 764 ft | 13 kts | 256° |
| 2026-04-30 21:08 | 49.96913 | 8.14079 | 766 ft | 11 kts | 186° |
| 2026-04-30 21:09 | 49.96848 | 8.14099 | 766 ft | 1 kts | 165° |
| 2026-04-30 21:12 | 49.96818 | 8.14112 | 767 ft | 8 kts | 161° |
| 2026-04-30 21:12 | 49.96808 | 8.14182 | 765 ft | 2 kts | 70° |
| 2026-04-30 21:12 | 49.96809 | 8.14183 | 765 ft | 0 kts | 71° |
| 2026-04-30 21:13 | 49.96810 | 8.14188 | 765 ft | 6 kts | 71° |
| 2026-04-30 21:14 | 49.96889 | 8.14628 | 756 ft | 74 kts | 74° |
| 2026-04-30 21:14 | 49.97066 | 8.15588 | 859 ft | 101 kts | 73° |
| 2026-04-30 21:14 | 49.97277 | 8.16637 | 1166 ft | 104 kts | 72° |
| 2026-04-30 21:14 | 49.97188 | 8.17780 | 1371 ft | 115 kts | 124° |
| 2026-04-30 21:15 | 49.96491 | 8.18467 | 1508 ft | 125 kts | 165° |
| 2026-04-30 21:15 | 49.95639 | 8.18702 | 1676 ft | 129 kts | 197° |
| 2026-04-30 21:15 | 49.95017 | 8.17739 | 1787 ft | 134 kts | 247° |
| 2026-04-30 21:15 | 49.94880 | 8.16299 | 1906 ft | 137 kts | 268° |
| 2026-04-30 21:16 | 49.94865 | 8.14807 | 1990 ft | 141 kts | 269° |
| 2026-04-30 21:16 | 49.94815 | 8.13265 | 2024 ft | 145 kts | 267° |
| 2026-04-30 21:16 | 49.94908 | 8.12243 | 2018 ft | 148 kts | 292° |
| 2026-04-30 21:16 | 49.95644 | 8.11147 | 2050 ft | 151 kts | 328° |
| 2026-04-30 21:17 | 49.96550 | 8.10316 | 2059 ft | 152 kts | 326° |
| 2026-04-30 21:17 | 49.97459 | 8.09506 | 2152 ft | 147 kts | 330° |
| 2026-04-30 21:17 | 49.98341 | 8.08796 | 2358 ft | 141 kts | 330° |
| 2026-04-30 21:17 | 49.99272 | 8.08262 | 2356 ft | 151 kts | 354° |
| 2026-04-30 21:18 | 50.00291 | 8.08653 | 2475 ft | 150 kts | 17° |
| 2026-04-30 21:18 | 50.01282 | 8.09139 | 2599 ft | 149 kts | 13° |
| 2026-04-30 21:18 | 50.02316 | 8.09319 | 2634 ft | 152 kts | 356° |
| 2026-04-30 21:18 | 50.03346 | 8.08932 | 2634 ft | 154 kts | 335° |
| 2026-04-30 21:19 | 50.04384 | 8.08520 | 2634 ft | 157 kts | 357° |
| 2026-04-30 21:19 | 50.05452 | 8.08890 | 2634 ft | 160 kts | 24° |
| 2026-04-30 21:19 | 50.06345 | 8.09927 | 2637 ft | 161 kts | 40° |
| 2026-04-30 21:19 | 50.07191 | 8.11074 | 2636 ft | 161 kts | 39° |
| 2026-04-30 21:20 | 50.08041 | 8.12213 | 2639 ft | 162 kts | 39° |
| 2026-04-30 21:20 | 50.08895 | 8.13352 | 2637 ft | 162 kts | 39° |
| 2026-04-30 21:20 | 50.09751 | 8.14497 | 2640 ft | 162 kts | 39° |
| 2026-04-30 21:20 | 50.10605 | 8.15639 | 2636 ft | 162 kts | 39° |
| 2026-04-30 21:21 | 50.11455 | 8.16778 | 2634 ft | 161 kts | 39° |
| 2026-04-30 21:21 | 50.12304 | 8.17915 | 2636 ft | 164 kts | 39° |
| 2026-04-30 21:21 | 50.14094 | 8.20314 | 2632 ft | 159 kts | 39° |
| 2026-04-30 21:22 | 50.14878 | 8.21366 | 2634 ft | 140 kts | 39° |
| 2026-04-30 21:22 | 50.17211 | 8.24494 | 2648 ft | 164 kts | 39° |
| 2026-04-30 21:23 | 50.18082 | 8.25665 | 2709 ft | 165 kts | 39° |
| 2026-04-30 21:23 | 50.18942 | 8.26822 | 2803 ft | 162 kts | 39° |
| 2026-04-30 21:23 | 50.20658 | 8.29131 | 3002 ft | 163 kts | 39° |
| 2026-04-30 21:24 | 50.21516 | 8.30284 | 3105 ft | 164 kts | 39° |
| 2026-04-30 21:24 | 50.22382 | 8.31452 | 3206 ft | 164 kts | 39° |
| 2026-04-30 21:24 | 50.23247 | 8.32618 | 3304 ft | 164 kts | 39° |
| 2026-04-30 21:24 | 50.24111 | 8.33781 | 3405 ft | 164 kts | 40° |
| 2026-04-30 21:25 | 50.25749 | 8.35992 | 3888 ft | 151 kts | 39° |
| 2026-04-30 21:25 | 50.26548 | 8.37070 | 4063 ft | 152 kts | 39° |
| 2026-04-30 21:25 | 50.27350 | 8.38154 | 4259 ft | 152 kts | 39° |
| 2026-04-30 21:26 | 50.29131 | 8.39838 | 4641 ft | 151 kts | 6° |
| 2026-04-30 21:26 | 50.30161 | 8.39676 | 4821 ft | 149 kts | 339° |
| 2026-04-30 21:27 | 50.32027 | 8.38263 | 5137 ft | 151 kts | 332° |
| 2026-04-30 21:27 | 50.33007 | 8.37511 | 5142 ft | 161 kts | 332° |
| 2026-04-30 21:27 | 50.34037 | 8.36723 | 5142 ft | 168 kts | 332° |
| 2026-04-30 21:28 | 50.36170 | 8.35087 | 5142 ft | 173 kts | 332° |
| 2026-04-30 21:28 | 50.37243 | 8.34262 | 5143 ft | 168 kts | 332° |
| 2026-04-30 21:28 | 50.39237 | 8.32727 | 5137 ft | 154 kts | 332° |
| 2026-04-30 21:29 | 50.40185 | 8.31999 | 5135 ft | 150 kts | 333° |
| 2026-04-30 21:29 | 50.42891 | 8.33755 | 5135 ft | 150 kts | 36° |
| 2026-04-30 21:30 | 50.44483 | 8.35693 | 5295 ft | 139 kts | 36° |
| 2026-04-30 21:31 | 50.46697 | 8.38381 | 5588 ft | 130 kts | 36° |
| 2026-04-30 21:31 | 50.48162 | 8.40161 | 5638 ft | 138 kts | 36° |
| 2026-04-30 21:32 | 50.49710 | 8.42043 | 5642 ft | 143 kts | 36° |
| 2026-04-30 21:32 | 50.50505 | 8.43011 | 5643 ft | 145 kts | 36° |
| 2026-04-30 21:32 | 50.51361 | 8.43835 | 5639 ft | 145 kts | 15° |
| 2026-04-30 21:32 | 50.52353 | 8.43914 | 5639 ft | 143 kts | 346° |
| 2026-04-30 21:33 | 50.53238 | 8.43244 | 5638 ft | 142 kts | 318° |
| 2026-04-30 21:33 | 50.54489 | 8.40843 | 5565 ft | 147 kts | 307° |
| 2026-04-30 21:33 | 50.55126 | 8.39578 | 5527 ft | 147 kts | 307° |
| 2026-04-30 21:34 | 50.55779 | 8.38279 | 5370 ft | 154 kts | 307° |
| 2026-04-30 21:34 | 50.57108 | 8.35635 | 5254 ft | 157 kts | 307° |
| 2026-04-30 21:34 | 50.57763 | 8.34338 | 4996 ft | 135 kts | 307° |
| 2026-04-30 21:35 | 50.58404 | 8.33055 | 4228 ft | 146 kts | 307° |
| 2026-04-30 21:35 | 50.59056 | 8.31751 | 3717 ft | 150 kts | 307° |
| 2026-04-30 21:35 | 50.59698 | 8.30474 | 3258 ft | 148 kts | 307° |
| 2026-04-30 21:35 | 50.60336 | 8.29201 | 2793 ft | 147 kts | 307° |
| 2026-04-30 21:36 | 50.60934 | 8.28011 | 2642 ft | 124 kts | 307° |
| 2026-04-30 21:36 | 50.61410 | 8.27066 | 2634 ft | 98 kts | 306° |
| 2026-04-30 21:37 | 50.62573 | 8.24732 | 2635 ft | 90 kts | 306° |
| 2026-04-30 21:37 | 50.62973 | 8.23929 | 2644 ft | 98 kts | 306° |
| 2026-04-30 21:37 | 50.63434 | 8.23011 | 2653 ft | 115 kts | 307° |
| 2026-04-30 21:37 | 50.63957 | 8.21974 | 2653 ft | 126 kts | 307° |
| 2026-04-30 21:38 | 50.64502 | 8.20879 | 2641 ft | 119 kts | 307° |
| 2026-04-30 21:38 | 50.64940 | 8.20006 | 2629 ft | 89 kts | 306° |
| 2026-04-30 21:38 | 50.65283 | 8.19314 | 2627 ft | 72 kts | 305° |
| 2026-04-30 21:38 | 50.65599 | 8.18683 | 2587 ft | 73 kts | 307° |
| 2026-04-30 21:39 | 50.65899 | 8.18059 | 2734 ft | 73 kts | 307° |
| 2026-04-30 21:39 | 50.66282 | 8.17309 | 2663 ft | 100 kts | 307° |
| 2026-04-30 21:39 | 50.66729 | 8.16419 | 2649 ft | 106 kts | 307° |
| 2026-04-30 21:39 | 50.67190 | 8.15490 | 2647 ft | 106 kts | 307° |
| 2026-04-30 21:40 | 50.67614 | 8.14643 | 2642 ft | 100 kts | 306° |
| 2026-04-30 21:40 | 50.68035 | 8.13756 | 2632 ft | 102 kts | 305° |
| 2026-04-30 21:40 | 50.68483 | 8.12868 | 2600 ft | 104 kts | 307° |
| 2026-04-30 21:40 | 50.68905 | 8.12017 | 2437 ft | 92 kts | 308° |
| 2026-04-30 21:41 | 50.69291 | 8.11262 | 2231 ft | 87 kts | 307° |
| 2026-04-30 21:41 | 50.69656 | 8.10523 | 2144 ft | 85 kts | 306° |
| 2026-04-30 21:41 | 50.70023 | 8.09801 | 2050 ft | 84 kts | 306° |
| 2026-04-30 21:41 | 50.70385 | 8.09059 | 1985 ft | 84 kts | 307° |
| 2026-04-30 21:42 | 50.70709 | 8.08419 | 1957 ft | 54 kts | 313° |
| 2026-04-30 21:42 | 50.70763 | 8.08254 | 1958 ft | 7 kts | 144° |
| 2026-04-30 21:42 | 50.70748 | 8.08309 | 1958 ft | 6 kts | 134° |
| 2026-04-30 21:42 | 50.70720 | 8.08284 | 1958 ft | 6 kts | 268° |
| 2026-04-30 21:43 | 50.70724 | 8.08221 | 1958 ft | 6 kts | 277° |
| 2026-04-30 21:43 | 50.70727 | 8.08155 | 1958 ft | 6 kts | 267° |
| 2026-04-30 21:43 | 50.70725 | 8.08138 | 1958 ft | 0 kts | 249° |
| 2026-04-30 21:46 | 50.70708 | 8.08102 | 1958 ft | 9 kts | 217° |
| 2026-04-30 21:46 | 50.70690 | 8.08028 | 1958 ft | 8 kts | 297° |
| 2026-04-30 21:46 | 50.70721 | 8.07963 | 1958 ft | 7 kts | 308° |
| 2026-04-30 21:47 | 50.70764 | 8.07878 | 1958 ft | 11 kts | 308° |
| 2026-04-30 21:47 | 50.70760 | 8.07790 | 1959 ft | 9 kts | 210° |
| 2026-04-30 21:47 | 50.70699 | 8.07777 | 1958 ft | 9 kts | 213° |
| 2026-04-30 21:47 | 50.70663 | 8.07700 | 1959 ft | 9 kts | 248° |
| 2026-04-30 21:48 | 50.70640 | 8.07613 | 1959 ft | 8 kts | 246° |
| 2026-04-30 21:48 | 50.70608 | 8.07552 | 1959 ft | 6 kts | 154° |
| 2026-04-30 21:48 | 50.70615 | 8.07571 | 1959 ft | 0 kts | 325° |